createdAt,value
2024-04-23T00:00:22.738Z,9.15
2024-04-23T00:01:22.855Z,9.19
2024-04-23T00:02:22.795Z,9.18
2024-04-23T00:03:22.822Z,9.22
2024-04-23T00:04:22.925Z,9.19
2024-04-23T00:05:22.919Z,9.19
2024-04-23T00:06:22.943Z,9.12
2024-04-23T00:07:23.033Z,9.10
2024-04-23T00:08:22.995Z,9.12
2024-04-23T00:09:23.021Z,9.14
2024-04-23T00:10:23.147Z,8.98
2024-04-23T00:11:23.125Z,9.02
2024-04-23T00:12:23.111Z,9.07
2024-04-23T00:13:23.139Z,9.11
2024-04-23T00:14:23.136Z,9.11
2024-04-23T00:15:23.203Z,9.12
2024-04-23T00:16:23.237Z,9.07
2024-04-23T00:17:23.300Z,9.10
2024-04-23T00:18:23.344Z,9.02
2024-04-23T00:19:23.370Z,9.02
2024-04-23T00:20:23.434Z,9.04
2024-04-23T00:21:23.450Z,9.05
2024-04-23T00:22:23.506Z,9.08
2024-04-23T00:23:23.549Z,8.88
2024-04-23T00:24:23.618Z,8.85
2024-04-23T00:25:23.714Z,8.81
2024-04-23T00:26:23.756Z,8.77
2024-04-23T00:27:23.813Z,8.84
2024-04-23T00:28:23.924Z,8.74
2024-04-23T00:29:23.974Z,8.65
2024-04-23T00:30:23.982Z,8.71
2024-04-23T00:31:24.000Z,8.60
2024-04-23T00:32:24.119Z,8.60
2024-04-23T00:33:24.162Z,8.71
2024-04-23T00:34:24.232Z,8.70
2024-04-23T00:35:24.284Z,8.67
2024-04-23T00:36:24.302Z,8.49
2024-04-23T00:37:24.392Z,8.56
2024-04-23T00:38:24.404Z,8.59
2024-04-23T00:39:24.484Z,8.59
2024-04-23T00:40:24.514Z,8.63
2024-04-23T00:41:24.551Z,8.64
2024-04-23T00:42:24.626Z,8.67
2024-04-23T00:43:24.649Z,8.32
2024-04-23T00:44:24.620Z,8.51
2024-04-23T00:45:24.629Z,8.41
2024-04-23T00:46:24.719Z,8.49
2024-04-23T00:47:24.759Z,8.49
2024-04-23T00:48:24.802Z,8.60
2024-04-23T00:49:24.789Z,8.65
2024-04-23T00:50:24.798Z,8.70
2024-04-23T00:51:24.816Z,8.74
2024-04-23T00:52:24.907Z,8.84
2024-04-23T00:53:24.932Z,8.90
2024-04-23T00:54:24.988Z,8.92
2024-04-23T00:55:25.075Z,8.98
2024-04-23T00:56:25.077Z,8.87
2024-04-23T00:57:25.122Z,8.91
2024-04-23T00:58:25.199Z,8.88
2024-04-23T00:59:25.181Z,8.80
2024-04-23T01:00:25.224Z,8.82
2024-04-23T01:01:25.279Z,8.81
2024-04-23T01:02:25.316Z,8.88
2024-04-23T01:03:25.313Z,8.90
2024-04-23T01:04:25.319Z,8.88
2024-04-23T01:05:25.287Z,8.92
2024-04-23T01:06:25.323Z,8.97
2024-04-23T01:07:25.430Z,8.88
2024-04-23T01:08:25.391Z,8.92
2024-04-23T01:09:25.465Z,8.82
2024-04-23T01:10:25.509Z,8.77
2024-04-23T01:11:25.536Z,8.87
2024-04-23T01:12:25.516Z,8.88
2024-04-23T01:13:25.567Z,8.94
2024-04-23T01:14:25.586Z,8.97
2024-04-23T01:15:25.603Z,9.00
2024-04-23T01:16:25.630Z,8.98
2024-04-23T01:17:25.750Z,9.05
2024-04-23T01:18:25.814Z,9.04
2024-04-23T01:19:25.766Z,8.75
2024-04-23T01:20:25.737Z,8.64
2024-04-23T01:21:25.770Z,8.70
2024-04-23T01:22:25.903Z,8.77
2024-04-23T01:23:25.836Z,8.80
2024-04-23T01:24:25.869Z,8.81
2024-04-23T01:25:25.936Z,8.81
2024-04-23T01:26:25.918Z,8.88
2024-04-23T01:27:25.958Z,8.92
2024-04-23T01:28:26.010Z,8.98
2024-04-23T01:29:25.966Z,8.98
2024-04-23T01:30:26.075Z,9.04
2024-04-23T01:31:26.100Z,9.08
2024-04-23T01:32:26.167Z,9.10
2024-04-23T01:33:26.287Z,9.10
2024-04-23T01:34:26.226Z,9.14
2024-04-23T01:35:26.207Z,9.16
2024-04-23T01:36:26.259Z,9.23
2024-04-23T01:37:26.313Z,9.25
2024-04-23T01:38:26.312Z,9.29
2024-04-23T01:39:26.316Z,9.31
2024-04-23T01:40:26.353Z,9.31
2024-04-23T01:41:26.382Z,9.28
2024-04-23T01:42:26.442Z,9.32
2024-04-23T01:43:26.470Z,9.31
2024-04-23T01:44:26.478Z,9.33
2024-04-23T01:45:26.467Z,9.31
2024-04-23T01:46:26.534Z,9.31
2024-04-23T01:47:26.730Z,9.28
2024-04-23T01:48:26.644Z,9.18
2024-04-23T01:49:26.612Z,9.23
2024-04-23T01:50:26.625Z,9.21
2024-04-23T01:51:26.631Z,9.23
2024-04-23T01:52:26.709Z,9.22
2024-04-23T01:53:26.704Z,9.21
2024-04-23T01:54:26.760Z,9.23
2024-04-23T01:55:26.837Z,9.23
2024-04-23T01:56:26.828Z,9.19
2024-04-23T01:57:26.923Z,9.05
2024-04-23T01:58:27.023Z,8.97
2024-04-23T01:59:27.051Z,8.90
2024-04-23T02:00:27.053Z,8.80
2024-04-23T02:01:27.113Z,8.56
2024-04-23T02:02:27.198Z,8.50
2024-04-23T02:03:27.263Z,8.71
2024-04-23T02:04:27.256Z,8.64
2024-04-23T02:05:27.262Z,8.68
2024-04-23T02:06:27.323Z,8.80
2024-04-23T02:07:27.364Z,8.81
2024-04-23T02:08:27.431Z,8.82
2024-04-23T02:09:27.454Z,8.87
2024-04-23T02:10:27.522Z,8.92
2024-04-23T02:11:27.660Z,9.00
2024-04-23T02:12:27.652Z,9.04
2024-04-23T02:13:27.714Z,9.07
2024-04-23T02:14:27.694Z,9.12
2024-04-23T02:15:27.735Z,9.18
2024-04-23T02:16:27.784Z,9.19
2024-04-23T02:17:27.842Z,9.28
2024-04-23T02:18:28.037Z,9.25
2024-04-23T02:19:27.872Z,9.26
2024-04-23T02:20:27.946Z,9.18
2024-04-23T02:21:27.961Z,9.19
2024-04-23T02:22:28.052Z,9.15
2024-04-23T02:23:28.028Z,9.22
2024-04-23T02:24:28.069Z,9.25
2024-04-23T02:25:28.173Z,9.14
2024-04-23T02:26:28.221Z,9.19
2024-04-23T02:27:28.284Z,9.15
2024-04-23T02:28:28.381Z,9.11
2024-04-23T02:29:28.320Z,9.11
2024-04-23T02:30:28.358Z,9.10
2024-04-23T02:31:28.414Z,9.04
2024-04-23T02:32:28.442Z,9.05
2024-04-23T02:33:28.502Z,9.11
2024-04-23T02:34:28.496Z,9.19
2024-04-23T02:35:28.809Z,9.21
2024-04-23T02:36:28.510Z,9.26
2024-04-23T02:37:28.564Z,9.29
2024-04-23T02:38:28.573Z,9.32
2024-04-23T02:39:28.586Z,9.31
2024-04-23T02:40:28.628Z,9.28
2024-04-23T02:41:28.685Z,9.28
2024-04-23T02:42:28.699Z,9.28
2024-04-23T02:43:28.746Z,9.29
2024-04-23T02:44:28.770Z,9.25
2024-04-23T02:45:31.665Z,9.25
2024-04-23T02:46:28.872Z,9.22
2024-04-23T02:47:28.882Z,9.23
2024-04-23T02:48:28.955Z,9.28
2024-04-23T02:49:28.849Z,9.32
2024-04-23T02:50:28.832Z,9.35
2024-04-23T02:51:28.829Z,9.36
2024-04-23T02:52:28.862Z,9.41
2024-04-23T02:53:28.838Z,9.42
2024-04-23T02:54:28.839Z,9.38
2024-04-23T02:55:28.861Z,9.33
2024-04-23T02:56:28.834Z,9.36
2024-04-23T02:57:28.854Z,9.35
2024-04-23T02:58:28.892Z,9.35
2024-04-23T02:59:28.854Z,9.31
2024-04-23T03:00:28.843Z,9.31
2024-04-23T03:01:28.886Z,9.31
2024-04-23T03:02:28.909Z,9.31
2024-04-23T03:03:28.925Z,9.33
2024-04-23T03:04:28.902Z,9.36
2024-04-23T03:05:28.868Z,9.39
2024-04-23T03:06:28.863Z,9.42
2024-04-23T03:07:28.891Z,9.45
2024-04-23T03:08:28.896Z,9.47
2024-04-23T03:09:28.879Z,9.47
2024-04-23T03:10:28.873Z,9.49
2024-04-23T03:11:28.880Z,9.50
2024-04-23T03:12:28.874Z,9.46
2024-04-23T03:13:28.936Z,9.49
2024-04-23T03:14:28.871Z,9.49
2024-04-23T03:15:28.917Z,9.50
2024-04-23T03:16:28.943Z,9.54
2024-04-23T03:17:28.918Z,9.49
2024-04-23T03:18:29.011Z,9.53
2024-04-23T03:19:28.968Z,9.43
2024-04-23T03:20:28.900Z,9.46
2024-04-23T03:21:28.903Z,9.47
2024-04-23T03:22:28.905Z,9.42
2024-04-23T03:23:28.916Z,9.42
2024-04-23T03:24:28.896Z,9.46
2024-04-23T03:25:28.936Z,9.47
2024-04-23T03:26:28.909Z,9.49
2024-04-23T03:27:28.907Z,9.52
2024-04-23T03:28:28.945Z,9.56
2024-04-23T03:29:28.925Z,9.56
2024-04-23T03:30:28.913Z,9.54
2024-04-23T03:31:28.934Z,9.53
2024-04-23T03:32:29.041Z,9.54
2024-04-23T03:33:28.954Z,9.56
2024-04-23T03:34:28.924Z,9.54
2024-04-23T03:35:28.936Z,9.53
2024-04-23T03:36:28.928Z,9.50
2024-04-23T03:37:28.931Z,9.57
2024-04-23T03:38:28.933Z,9.53
2024-04-23T03:39:28.922Z,9.56
2024-04-23T03:40:28.954Z,9.52
2024-04-23T03:41:28.916Z,9.53
2024-04-23T03:42:28.934Z,9.53
2024-04-23T03:43:28.950Z,9.53
2024-04-23T03:44:28.945Z,9.52
2024-04-23T03:45:28.925Z,9.50
2024-04-23T03:46:28.980Z,9.47
2024-04-23T03:47:28.959Z,9.45
2024-04-23T03:48:28.974Z,9.46
2024-04-23T03:49:28.941Z,9.42
2024-04-23T03:50:28.966Z,9.38
2024-04-23T03:51:28.956Z,9.35
2024-04-23T03:52:28.964Z,9.26
2024-04-23T03:53:28.955Z,9.23
2024-04-23T03:54:28.980Z,8.90
2024-04-23T03:55:28.953Z,9.00
2024-04-23T03:56:29.021Z,9.05
2024-04-23T03:57:29.071Z,9.08
2024-04-23T03:58:29.171Z,9.10
2024-04-23T03:59:29.202Z,9.14
2024-04-23T04:00:29.289Z,9.07
2024-04-23T04:01:29.370Z,9.05
2024-04-23T04:02:29.521Z,9.02
2024-04-23T04:03:29.478Z,9.02
2024-04-23T04:04:29.548Z,8.70
2024-04-23T04:05:29.595Z,8.54
2024-04-23T04:06:29.661Z,8.44
2024-04-23T04:07:29.679Z,8.47
2024-04-23T04:08:29.695Z,8.39
2024-04-23T04:09:29.773Z,8.37
2024-04-23T04:10:29.834Z,8.54
2024-04-23T04:11:29.971Z,8.61
2024-04-23T04:12:29.843Z,8.71
2024-04-23T04:13:29.917Z,8.75
2024-04-23T04:14:29.914Z,8.84
2024-04-23T04:15:29.917Z,8.88
2024-04-23T04:16:32.633Z,8.81
2024-04-23T04:17:30.035Z,8.74
2024-04-23T04:18:29.958Z,8.75
2024-04-23T04:19:29.963Z,8.81
2024-04-23T04:20:29.956Z,8.85
2024-04-23T04:21:29.955Z,8.74
2024-04-23T04:22:30.014Z,8.68
2024-04-23T04:23:29.970Z,8.56
2024-04-23T04:24:29.939Z,8.63
2024-04-23T04:25:29.983Z,8.77
2024-04-23T04:26:29.958Z,8.77
2024-04-23T04:27:29.963Z,8.88
2024-04-23T04:28:29.978Z,8.91
2024-04-23T04:29:29.968Z,8.80
2024-04-23T04:30:30.005Z,8.92
2024-04-23T04:31:30.003Z,8.87
2024-04-23T04:32:30.065Z,8.77
2024-04-23T04:33:29.985Z,8.90
2024-04-23T04:34:30.080Z,8.98
2024-04-23T04:35:30.106Z,9.01
2024-04-23T04:36:30.210Z,9.05
2024-04-23T04:37:30.203Z,9.05
2024-04-23T04:38:30.247Z,9.15
2024-04-23T04:39:30.292Z,9.15
2024-04-23T04:40:30.321Z,9.16
2024-04-23T04:41:30.444Z,9.19
2024-04-23T04:42:30.392Z,9.19
2024-04-23T04:43:30.457Z,9.25
2024-04-23T04:44:30.442Z,9.28
2024-04-23T04:45:30.479Z,9.32
2024-04-23T04:46:30.555Z,9.35
2024-04-23T04:47:30.560Z,9.39
2024-04-23T04:48:30.612Z,9.31
2024-04-23T04:49:30.692Z,9.28
2024-04-23T04:50:30.670Z,9.12
2024-04-23T04:51:30.711Z,9.25
2024-04-23T04:52:30.786Z,9.23
2024-04-23T04:53:30.755Z,9.28
2024-04-23T04:54:38.664Z,9.28
2024-04-23T04:55:38.684Z,9.33
2024-04-23T04:56:38.661Z,9.35
2024-04-23T04:57:38.741Z,9.35
2024-04-23T04:58:38.768Z,9.39
2024-04-23T04:59:38.824Z,9.46
2024-04-23T05:00:39.974Z,9.43
2024-04-23T05:01:38.784Z,9.52
2024-04-23T05:02:38.785Z,9.64
2024-04-23T05:03:38.798Z,9.50
2024-04-23T05:04:38.857Z,9.50
2024-04-23T05:05:38.862Z,9.59
2024-04-23T05:06:38.899Z,9.63
2024-04-23T05:07:38.922Z,9.57
2024-04-23T05:08:38.955Z,9.57
2024-04-23T05:09:38.985Z,9.64
2024-04-23T05:10:39.004Z,9.70
2024-04-23T05:11:39.115Z,9.63
2024-04-23T05:12:39.057Z,9.62
2024-04-23T05:13:39.123Z,9.67
2024-04-23T05:14:39.111Z,9.62
2024-04-23T05:15:39.146Z,9.74
2024-04-23T05:16:39.190Z,9.74
2024-04-23T05:17:39.279Z,9.77
2024-04-23T05:18:39.273Z,9.66
2024-04-23T05:19:39.326Z,9.74
2024-04-23T05:20:39.355Z,9.38
2024-04-23T05:21:39.409Z,9.57
2024-04-23T05:22:39.546Z,9.52
2024-04-23T05:23:39.494Z,9.70
2024-04-23T05:24:39.509Z,9.76
2024-04-23T05:25:39.597Z,9.76
2024-04-23T05:26:39.633Z,9.84
2024-04-23T05:27:39.679Z,9.92
2024-04-23T05:28:39.773Z,9.98
2024-04-23T05:29:40.719Z,10.01
2024-04-23T05:30:39.868Z,10.08
2024-04-23T05:31:39.973Z,10.17
2024-04-23T05:32:40.042Z,10.21
2024-04-23T05:33:40.010Z,10.20
2024-04-23T05:34:39.980Z,10.10
2024-04-23T05:35:40.013Z,10.13
2024-04-23T05:36:40.217Z,10.27
2024-04-23T05:37:40.086Z,10.33
2024-04-23T05:38:40.147Z,10.31
2024-04-23T05:39:40.142Z,10.38
2024-04-23T05:40:40.191Z,10.45
2024-04-23T05:41:40.197Z,10.52
2024-04-23T05:42:40.244Z,10.58
2024-04-23T05:43:40.307Z,10.55
2024-04-23T05:44:40.333Z,10.51
2024-04-23T05:45:40.691Z,10.51
2024-04-23T05:46:40.461Z,10.58
2024-04-23T05:47:40.583Z,10.58
2024-04-23T05:48:40.583Z,10.61
2024-04-23T05:49:40.622Z,10.66
2024-04-23T05:50:40.632Z,10.64
2024-04-23T05:51:40.651Z,10.62
2024-04-23T05:52:40.696Z,10.58
2024-04-23T05:53:40.663Z,10.55
2024-04-23T05:54:40.692Z,10.62
2024-04-23T05:55:41.656Z,10.64
2024-04-23T05:56:40.760Z,10.64
2024-04-23T05:57:40.853Z,10.61
2024-04-23T05:58:40.880Z,10.66
2024-04-23T05:59:40.931Z,10.61
2024-04-23T06:00:40.956Z,10.58
2024-04-23T06:01:41.024Z,10.64
2024-04-23T06:02:41.028Z,10.68
2024-04-23T06:03:41.086Z,10.72
2024-04-23T06:04:41.157Z,10.79
2024-04-23T06:05:41.152Z,10.83
2024-04-23T06:06:41.268Z,10.89
2024-04-23T06:07:42.783Z,10.96
2024-04-23T06:08:41.252Z,11.03
2024-04-23T06:09:41.303Z,11.02
2024-04-23T06:10:41.401Z,11.05
2024-04-23T06:11:41.486Z,10.96
2024-04-23T06:12:41.421Z,10.85
2024-04-23T06:13:41.474Z,10.64
2024-04-23T06:14:41.468Z,10.71
2024-04-23T06:15:41.539Z,10.83
2024-04-23T06:16:41.645Z,10.68
2024-04-23T06:17:47.361Z,10.86
2024-04-23T06:18:42.662Z,11.06
2024-04-23T06:19:41.738Z,11.05
2024-04-23T06:20:41.611Z,11.16
2024-04-23T06:21:41.649Z,11.27
2024-04-23T06:22:41.688Z,11.33
2024-04-23T06:23:41.632Z,11.38
2024-04-23T06:24:41.625Z,11.38
2024-04-23T06:25:41.667Z,11.44
2024-04-23T06:26:41.642Z,11.38
2024-04-23T06:27:41.624Z,11.50
2024-04-23T06:28:41.702Z,11.56
2024-04-23T06:29:41.720Z,11.66
2024-04-23T06:30:41.766Z,11.67
2024-04-23T06:31:41.814Z,11.66
2024-04-23T06:32:42.013Z,11.63
2024-04-23T06:33:41.834Z,11.64
2024-04-23T06:34:41.950Z,11.67
2024-04-23T06:35:41.815Z,11.68
2024-04-23T06:36:41.875Z,11.70
2024-04-23T06:37:41.955Z,11.71
2024-04-23T06:38:42.221Z,11.73
2024-04-23T06:39:42.006Z,11.70
2024-04-23T06:40:41.995Z,11.77
2024-04-23T06:41:45.173Z,11.68
2024-04-23T06:42:42.062Z,11.68
2024-04-23T06:43:42.270Z,11.80
2024-04-23T06:44:42.050Z,11.82
2024-04-23T06:45:42.046Z,11.87
2024-04-23T06:46:42.069Z,11.92
2024-04-23T06:47:42.163Z,11.95
2024-04-23T06:48:42.769Z,12.02
2024-04-23T06:49:42.119Z,11.99
2024-04-23T06:50:42.062Z,12.05
2024-04-23T06:51:42.041Z,12.12
2024-04-23T06:52:42.183Z,12.15
2024-04-23T06:53:42.456Z,12.18
2024-04-23T06:54:42.041Z,12.21
2024-04-23T06:55:42.117Z,12.25
2024-04-23T06:56:42.044Z,12.31
2024-04-23T06:57:42.054Z,12.35
2024-04-23T06:58:42.096Z,12.33
2024-04-23T06:59:42.251Z,12.36
2024-04-23T07:00:42.100Z,12.50
2024-04-23T07:01:42.105Z,12.57
2024-04-23T07:02:42.105Z,12.46
2024-04-23T07:03:42.097Z,12.56
2024-04-23T07:04:42.087Z,12.63
2024-04-23T07:05:42.261Z,12.67
2024-04-23T07:06:42.091Z,12.76
2024-04-23T07:07:42.749Z,12.82
2024-04-23T07:08:42.123Z,12.82
2024-04-23T07:09:42.092Z,12.89
2024-04-23T07:10:42.123Z,12.90
2024-04-23T07:11:42.119Z,12.97
2024-04-23T07:12:42.093Z,13.01
2024-04-23T07:13:42.116Z,13.11
2024-04-23T07:14:42.101Z,13.11
2024-04-23T07:15:42.110Z,13.08
2024-04-23T07:16:42.196Z,13.14
2024-04-23T07:17:42.178Z,13.15
2024-04-23T07:18:50.792Z,13.25
2024-04-23T07:19:43.149Z,13.34
2024-04-23T07:20:42.248Z,13.34
2024-04-23T07:21:42.330Z,13.27
2024-04-23T07:22:42.168Z,13.21
2024-04-23T07:23:42.126Z,13.14
2024-04-23T07:24:42.100Z,13.40
2024-04-23T07:25:42.237Z,13.37
2024-04-23T07:26:42.080Z,13.48
2024-04-23T07:27:42.101Z,13.54
2024-04-23T07:28:42.136Z,13.52
2024-04-23T07:29:42.240Z,13.57
2024-04-23T07:30:42.139Z,13.48
2024-04-23T07:31:42.223Z,13.44
2024-04-23T07:32:42.195Z,13.18
2024-04-23T07:33:42.340Z,13.47
2024-04-23T07:34:42.300Z,13.52
2024-04-23T07:35:42.773Z,13.55
2024-04-23T07:36:46.087Z,13.71
2024-04-23T07:37:42.336Z,13.85
2024-04-23T07:38:42.321Z,13.88
2024-04-23T07:39:43.297Z,13.96
2024-04-23T07:40:42.320Z,13.95
2024-04-23T07:41:42.300Z,14.06
2024-04-23T07:42:42.375Z,13.64
2024-04-23T07:43:42.384Z,13.85
2024-04-23T07:44:42.358Z,14.01
2024-04-23T07:45:42.374Z,14.13
2024-04-23T07:46:42.362Z,14.27
2024-04-23T07:47:42.501Z,13.78
2024-04-23T07:48:42.402Z,13.72
2024-04-23T07:49:42.354Z,14.06
2024-04-23T07:50:42.331Z,13.81
2024-04-23T07:51:42.322Z,13.96
2024-04-23T07:52:42.341Z,14.15
2024-04-23T07:53:42.321Z,13.98
2024-04-23T07:54:42.331Z,13.66
2024-04-23T07:55:42.344Z,13.99
2024-04-23T07:56:43.944Z,13.90
2024-04-23T07:57:42.353Z,14.13
2024-04-23T07:58:42.351Z,14.06
2024-04-23T07:59:42.354Z,14.24
2024-04-23T08:00:42.376Z,14.37
2024-04-23T08:01:42.343Z,14.54
2024-04-23T08:02:42.380Z,14.63
2024-04-23T08:03:42.465Z,14.67
2024-04-23T08:04:42.373Z,14.74
2024-04-23T08:05:42.360Z,14.48
2024-04-23T08:06:42.726Z,14.53
2024-04-23T08:07:43.294Z,14.53
2024-04-23T08:08:42.332Z,14.60
2024-04-23T08:09:42.343Z,14.54
2024-04-23T08:10:42.394Z,14.57
2024-04-23T08:11:42.420Z,14.12
2024-04-23T08:12:42.403Z,14.33
2024-04-23T08:13:42.358Z,14.34
2024-04-23T08:14:42.361Z,14.29
2024-04-23T08:15:42.358Z,14.12
2024-04-23T08:16:42.919Z,13.89
2024-04-23T08:17:42.496Z,13.96
2024-04-23T08:18:42.511Z,14.09
2024-04-23T08:19:42.392Z,14.01
2024-04-23T08:20:43.050Z,13.72
2024-04-23T08:21:43.271Z,13.86
2024-04-23T08:22:42.416Z,13.81
2024-04-23T08:23:42.390Z,13.96
2024-04-23T08:24:42.422Z,13.82
2024-04-23T08:25:42.440Z,13.85
2024-04-23T08:26:42.378Z,13.78
2024-04-23T08:27:42.380Z,13.82
2024-04-23T08:28:42.368Z,13.93
2024-04-23T08:29:42.361Z,13.96
2024-04-23T08:30:42.400Z,13.99
2024-04-23T08:31:42.786Z,14.02
2024-04-23T08:32:42.439Z,14.01
2024-04-23T08:33:42.463Z,14.06
2024-04-23T08:34:42.417Z,14.08
2024-04-23T08:35:42.399Z,14.01
2024-04-23T08:36:42.388Z,14.09
2024-04-23T08:37:42.377Z,14.12
2024-04-23T08:38:42.495Z,14.16
2024-04-23T08:39:42.362Z,14.24
2024-04-23T08:40:42.421Z,14.27
2024-04-23T08:41:42.423Z,14.34
2024-04-23T08:42:42.446Z,14.34
2024-04-23T08:43:42.523Z,14.34
2024-04-23T08:44:42.512Z,14.37
2024-04-23T08:45:42.793Z,14.51
2024-04-23T08:46:42.591Z,14.36
2024-04-23T08:47:42.741Z,14.41
2024-04-23T08:48:42.697Z,14.44
2024-04-23T08:49:42.671Z,14.51
2024-04-23T08:50:42.785Z,14.41
2024-04-23T08:51:42.763Z,14.54
2024-04-23T08:52:42.770Z,14.64
2024-04-23T08:53:42.786Z,14.63
2024-04-23T08:54:42.825Z,14.59
2024-04-23T08:55:42.930Z,14.68
2024-04-23T08:56:43.258Z,14.33
2024-04-23T08:57:42.918Z,14.47
2024-04-23T08:58:42.961Z,14.43
2024-04-23T08:59:42.975Z,14.50
2024-04-23T09:00:51.462Z,14.50
2024-04-23T09:01:44.108Z,14.50
2024-04-23T09:02:42.987Z,14.56
2024-04-23T09:03:43.013Z,14.63
2024-04-23T09:04:43.032Z,14.73
2024-04-23T09:05:42.995Z,14.84
2024-04-23T09:06:43.027Z,14.90
2024-04-23T09:07:43.055Z,14.81
2024-04-23T09:08:42.997Z,14.83
2024-04-23T09:09:42.962Z,14.80
2024-04-23T09:10:43.006Z,14.61
2024-04-23T09:11:43.922Z,14.68
2024-04-23T09:12:43.053Z,14.73
2024-04-23T09:13:43.072Z,14.61
2024-04-23T09:14:43.000Z,14.74
2024-04-23T09:15:43.004Z,14.61
2024-04-23T09:16:43.072Z,14.73
2024-04-23T09:17:43.111Z,14.84
2024-04-23T09:18:42.989Z,14.94
2024-04-23T09:19:43.023Z,15.09
2024-04-23T09:20:42.990Z,15.15
2024-04-23T09:21:43.040Z,15.31
2024-04-23T09:22:43.019Z,15.38
2024-04-23T09:23:42.998Z,15.46
2024-04-23T09:24:43.002Z,15.47
2024-04-23T09:25:43.054Z,15.55
2024-04-23T09:26:43.070Z,15.63
2024-04-23T09:27:43.037Z,15.69
2024-04-23T09:28:43.042Z,15.77
2024-04-23T09:29:43.029Z,15.62
2024-04-23T09:30:43.014Z,15.41
2024-04-23T09:31:43.128Z,15.09
2024-04-23T09:32:43.345Z,15.26
2024-04-23T09:33:43.047Z,15.02
2024-04-23T09:34:43.113Z,15.60
2024-04-23T09:35:43.107Z,15.86
2024-04-23T09:36:43.337Z,16.03
2024-04-23T09:37:43.234Z,16.08
2024-04-23T09:38:43.246Z,16.34
2024-04-23T09:39:45.794Z,16.45
2024-04-23T09:40:43.559Z,16.43
2024-04-23T09:41:43.349Z,16.32
2024-04-23T09:42:43.389Z,16.51
2024-04-23T09:43:44.293Z,16.68
2024-04-23T09:44:43.317Z,16.52
2024-04-23T09:45:43.311Z,16.72
2024-04-23T09:46:43.331Z,16.72
2024-04-23T09:47:43.429Z,16.75
2024-04-23T09:48:43.448Z,16.82
2024-04-23T09:49:43.339Z,16.92
2024-04-23T09:50:43.306Z,17.02
2024-04-23T09:51:43.377Z,17.03
2024-04-23T09:52:43.372Z,17.16
2024-04-23T09:53:43.313Z,17.12
2024-04-23T09:54:43.328Z,17.20
2024-04-23T09:55:43.352Z,17.29
2024-04-23T09:56:43.797Z,17.41
2024-04-23T09:57:43.322Z,17.61
2024-04-23T09:58:43.369Z,17.63
2024-04-23T09:59:43.316Z,17.49
2024-04-23T10:00:43.388Z,17.74
2024-04-23T10:01:43.870Z,17.66
2024-04-23T10:02:43.530Z,17.85
2024-04-23T10:03:43.444Z,17.95
2024-04-23T10:04:43.452Z,17.74
2024-04-23T10:05:43.436Z,18.04
2024-04-23T10:06:43.364Z,18.29
2024-04-23T10:07:43.345Z,18.28
2024-04-23T10:08:43.358Z,18.22
2024-04-23T10:09:43.319Z,18.35
2024-04-23T10:10:43.379Z,18.35
2024-04-23T10:11:43.468Z,18.25
2024-04-23T10:12:43.354Z,18.52
2024-04-23T10:13:43.386Z,18.24
2024-04-23T10:14:43.381Z,18.42
2024-04-23T10:15:43.352Z,18.39
2024-04-23T10:16:43.376Z,18.55
2024-04-23T10:17:43.404Z,18.49
2024-04-23T10:18:43.484Z,18.33
2024-04-23T10:19:43.477Z,18.38
2024-04-23T10:20:43.345Z,18.43
2024-04-23T10:21:43.426Z,18.43
2024-04-23T10:22:43.401Z,18.58
2024-04-23T10:23:43.374Z,18.45
2024-04-23T10:24:43.396Z,18.50
2024-04-23T10:25:43.474Z,18.60
2024-04-23T10:26:43.491Z,18.41
2024-04-23T10:27:43.505Z,18.55
2024-04-23T10:28:43.655Z,18.52
2024-04-23T10:29:43.567Z,18.31
2024-04-23T10:30:43.639Z,17.87
2024-04-23T10:31:43.692Z,18.33
2024-04-23T10:32:43.750Z,18.43
2024-04-23T10:33:43.753Z,18.31
2024-04-23T10:34:43.821Z,18.24
2024-04-23T10:35:43.746Z,18.18
2024-04-23T10:36:43.797Z,18.67
2024-04-23T10:37:43.836Z,18.70
2024-04-23T10:38:43.861Z,18.49
2024-04-23T10:39:43.877Z,18.99
2024-04-23T10:40:52.068Z,18.97
2024-04-23T10:41:44.999Z,18.91
2024-04-23T10:42:44.022Z,19.24
2024-04-23T10:43:43.938Z,18.93
2024-04-23T10:44:43.971Z,18.55
2024-04-23T10:45:43.939Z,18.80
2024-04-23T10:46:44.344Z,18.82
2024-04-23T10:47:43.971Z,18.73
2024-04-23T10:48:44.034Z,18.21
2024-04-23T10:49:43.937Z,18.04
2024-04-23T10:50:43.946Z,18.22
2024-04-23T10:51:43.946Z,18.32
2024-04-23T10:52:44.043Z,18.31
2024-04-23T10:53:43.997Z,18.33
2024-04-23T10:54:44.038Z,18.33
2024-04-23T10:55:44.122Z,18.15
2024-04-23T10:56:44.294Z,18.16
2024-04-23T10:57:44.222Z,18.04
2024-04-23T10:58:44.257Z,18.08
2024-04-23T10:59:44.307Z,18.19
2024-04-23T11:00:44.508Z,18.16
2024-04-23T11:01:44.863Z,17.94
2024-04-23T11:02:44.450Z,17.51
2024-04-23T11:03:44.490Z,17.81
2024-04-23T11:04:44.597Z,17.87
2024-04-23T11:05:44.545Z,17.67
2024-04-23T11:06:44.735Z,17.15
2024-04-23T11:07:44.647Z,17.46
2024-04-23T11:08:44.788Z,17.44
2024-04-23T11:09:44.842Z,17.46
2024-04-23T11:10:44.733Z,17.44
2024-04-23T11:11:44.834Z,17.41
2024-04-23T11:12:44.932Z,17.57
2024-04-23T11:13:44.924Z,17.43
2024-04-23T11:14:44.905Z,17.41
2024-04-23T11:15:44.982Z,17.46
2024-04-23T11:16:45.087Z,17.40
2024-04-23T11:17:45.342Z,17.15
2024-04-23T11:18:45.397Z,17.22
2024-04-23T11:19:45.200Z,17.23
2024-04-23T11:20:45.403Z,17.40
2024-04-23T11:21:45.346Z,17.47
2024-04-23T11:22:45.904Z,17.54
2024-04-23T11:23:45.228Z,17.57
2024-04-23T11:24:45.296Z,17.44
2024-04-23T11:25:45.329Z,17.34
2024-04-23T11:26:45.367Z,17.34
2024-04-23T11:27:45.416Z,17.43
2024-04-23T11:28:45.434Z,17.34
2024-04-23T11:29:45.428Z,17.47
2024-04-23T11:30:45.492Z,17.57
2024-04-23T11:31:45.837Z,17.68
2024-04-23T11:32:45.581Z,17.85
2024-04-23T11:33:45.635Z,17.84
2024-04-23T11:34:45.726Z,17.92
2024-04-23T11:35:45.702Z,17.90
2024-04-23T11:36:45.811Z,17.90
2024-04-23T11:37:45.763Z,17.85
2024-04-23T11:38:45.825Z,17.88
2024-04-23T11:39:45.879Z,17.82
2024-04-23T11:40:46.822Z,17.97
2024-04-23T11:41:45.959Z,17.80
2024-04-23T11:42:46.021Z,17.82
2024-04-23T11:43:46.155Z,17.70
2024-04-23T11:44:46.040Z,17.74
2024-04-23T11:45:46.117Z,17.54
2024-04-23T11:46:46.174Z,17.51
2024-04-23T11:47:46.316Z,17.50
2024-04-23T11:48:46.310Z,17.49
2024-04-23T11:49:46.285Z,17.30
2024-04-23T11:50:46.411Z,17.39
2024-04-23T11:51:46.355Z,17.31
2024-04-23T11:52:46.423Z,17.26
2024-04-23T11:53:46.400Z,17.25
2024-04-23T11:54:46.450Z,17.23
2024-04-23T11:55:46.479Z,17.26
2024-04-23T11:56:46.493Z,17.29
2024-04-23T11:57:46.547Z,17.27
2024-04-23T11:58:46.555Z,17.20
2024-04-23T11:59:46.607Z,17.19
2024-04-23T12:00:46.648Z,17.23
2024-04-23T12:01:46.647Z,17.19
2024-04-23T12:02:46.712Z,17.30
2024-04-23T12:03:46.745Z,17.16
2024-04-23T12:04:46.939Z,17.13
2024-04-23T12:05:46.887Z,17.17
2024-04-23T12:06:46.789Z,17.15
2024-04-23T12:07:46.872Z,17.15
2024-04-23T12:08:46.937Z,17.15
2024-04-23T12:09:46.961Z,17.17
2024-04-23T12:10:47.115Z,17.23
2024-04-23T12:11:47.148Z,17.17
2024-04-23T12:12:47.125Z,17.22
2024-04-23T12:13:47.292Z,17.12
2024-04-23T12:14:47.186Z,17.19
2024-04-23T12:15:47.267Z,17.19
2024-04-23T12:16:47.342Z,17.13
2024-04-23T12:17:47.338Z,17.23
2024-04-23T12:18:48.364Z,17.12
2024-04-23T12:19:47.470Z,17.12
2024-04-23T12:20:47.423Z,17.25
2024-04-23T12:21:47.848Z,17.25
2024-04-23T12:22:47.559Z,17.23
2024-04-23T12:23:47.560Z,17.07
2024-04-23T12:24:47.616Z,17.16
2024-04-23T12:25:47.742Z,17.20
2024-04-23T12:26:47.882Z,17.15
2024-04-23T12:27:48.072Z,17.17
2024-04-23T12:28:48.942Z,17.27
2024-04-23T12:29:47.912Z,17.30
2024-04-23T12:30:47.971Z,17.23
2024-04-23T12:31:48.114Z,17.20
2024-04-23T12:32:48.214Z,17.27
2024-04-23T12:33:48.154Z,17.29
2024-04-23T12:34:48.193Z,17.30
2024-04-23T12:35:48.176Z,17.33
2024-04-23T12:36:48.242Z,17.33
2024-04-23T12:37:48.274Z,17.26
2024-04-23T12:38:48.327Z,17.17
2024-04-23T12:39:48.378Z,17.03
2024-04-23T12:40:48.432Z,17.12
2024-04-23T12:41:48.471Z,17.19
2024-04-23T12:42:48.489Z,16.92
2024-04-23T12:43:48.499Z,16.74
2024-04-23T12:44:49.372Z,16.92
2024-04-23T12:45:48.553Z,16.88
2024-04-23T12:46:48.627Z,16.76
2024-04-23T12:47:48.606Z,16.79
2024-04-23T12:48:48.644Z,16.89
2024-04-23T12:49:48.675Z,16.86
2024-04-23T12:50:48.657Z,16.93
2024-04-23T12:51:48.714Z,16.92
2024-04-23T12:52:48.770Z,16.86
2024-04-23T12:53:48.767Z,16.80
2024-04-23T12:54:48.830Z,16.89
2024-04-23T12:55:48.855Z,16.90
2024-04-23T12:56:51.148Z,16.83
2024-04-23T12:57:48.840Z,16.82
2024-04-23T12:58:48.835Z,16.78
2024-04-23T12:59:49.319Z,16.85
2024-04-23T13:00:48.838Z,16.66
2024-04-23T13:01:51.214Z,16.64
2024-04-23T13:02:49.009Z,16.71
2024-04-23T13:03:49.079Z,16.71